createdAt,value
2022-09-03T00:00:28.092Z,100733.06
2022-09-03T00:03:03.353Z,100738.09
2022-09-03T00:05:39.798Z,100732.22
2022-09-03T00:08:13.656Z,100730.34
2022-09-03T00:10:48.213Z,100736.81
2022-09-03T00:13:24.308Z,100699.66
2022-09-03T00:15:56.688Z,100734.09
2022-09-03T00:18:30.105Z,100737.03
2022-09-03T00:21:08.461Z,100744.75
2022-09-03T00:23:41.730Z,100747.25
2022-09-03T00:26:23.169Z,100747.28
2022-09-03T00:29:01.009Z,100743.94
2022-09-03T00:31:34.197Z,100742.47
2022-09-03T00:34:07.280Z,100741.63
2022-09-03T00:36:42.379Z,100751.66
2022-09-03T00:39:12.703Z,100744.56
2022-09-03T00:41:50.150Z,100750.81
2022-09-03T00:44:40.088Z,100746.00
2022-09-03T00:47:15.907Z,100738.50
2022-09-03T00:49:56.109Z,100745.59
2022-09-03T00:52:39.639Z,100746.84
2022-09-03T00:55:14.536Z,100762.28
2022-09-03T00:57:56.143Z,100766.06
2022-09-03T01:00:25.845Z,100768.56
2022-09-03T01:03:08.049Z,100778.56
2022-09-03T01:06:03.617Z,100780.66
2022-09-03T01:08:51.695Z,100789.84
2022-09-03T01:11:28.607Z,100791.28
2022-09-03T01:14:08.261Z,100762.25
2022-09-03T01:16:56.105Z,100721.28
2022-09-03T01:19:51.234Z,100792.09
2022-09-03T01:22:50.277Z,100787.13
2022-09-03T01:25:32.329Z,100788.16
2022-09-03T01:28:20.663Z,100797.97
2022-09-03T01:30:57.423Z,100789.59
2022-09-03T01:33:33.524Z,100794.81
2022-09-03T01:36:13.197Z,100796.50
2022-09-03T01:38:48.995Z,100798.38
2022-09-03T01:42:00.325Z,100793.13
2022-09-03T01:44:40.510Z,100797.31
2022-09-03T01:47:17.966Z,100791.69
2022-09-03T01:49:58.034Z,100796.50
2022-09-03T01:52:37.553Z,100800.25
2022-09-03T01:55:18.500Z,100793.56
2022-09-03T01:57:57.260Z,100797.75
2022-09-03T02:00:29.013Z,100794.84
2022-09-03T02:02:57.446Z,100792.97
2022-09-03T02:05:27.623Z,100764.34
2022-09-03T02:08:01.139Z,100797.16
2022-09-03T02:10:33.910Z,100797.56
2022-09-03T02:13:07.022Z,100771.41
2022-09-03T02:15:41.904Z,100799.41
2022-09-03T02:18:15.196Z,100804.63
2022-09-03T02:20:44.332Z,100799.63
2022-09-03T02:23:12.758Z,100795.03
2022-09-03T02:25:45.908Z,100796.94
2022-09-03T02:28:17.498Z,100806.56
2022-09-03T02:30:58.107Z,100785.44
2022-09-03T02:33:27.109Z,100809.69
2022-09-03T02:35:55.826Z,100808.22
2022-09-03T02:38:26.716Z,100804.03
2022-09-03T02:40:56.041Z,100802.78
2022-09-03T02:43:28.866Z,100801.16
2022-09-03T02:46:03.424Z,100815.94
2022-09-03T02:48:31.953Z,100815.94
2022-09-03T02:51:00.309Z,100820.13
2022-09-03T02:53:29.541Z,100826.81
2022-09-03T02:56:01.240Z,100822.84
2022-09-03T02:58:31.657Z,100829.56
2022-09-03T03:01:01.411Z,100826.66
2022-09-03T03:03:29.887Z,100822.25
2022-09-03T03:06:00.401Z,100806.34
2022-09-03T03:08:30.488Z,100813.69
2022-09-03T03:11:00.811Z,100795.72
2022-09-03T03:13:30.061Z,100787.38
2022-09-03T03:15:58.636Z,100787.16
2022-09-03T03:18:28.878Z,100790.91
2022-09-03T03:20:57.707Z,100791.56
2022-09-03T03:23:26.084Z,100795.09
2022-09-03T03:25:54.360Z,100795.31
2022-09-03T03:28:22.686Z,100796.34
2022-09-03T03:30:51.266Z,100788.00
2022-09-03T03:33:19.590Z,100785.50
2022-09-03T03:35:51.694Z,100798.22
2022-09-03T03:38:20.157Z,100787.75
2022-09-03T03:40:48.514Z,100796.53
2022-09-03T03:43:16.793Z,100781.09
2022-09-03T03:45:45.186Z,100780.25
2022-09-03T03:48:13.485Z,100772.53
2022-09-03T03:50:41.733Z,100735.97
2022-09-03T03:53:11.739Z,100763.13
2022-09-03T03:55:39.976Z,100766.25
2022-09-03T03:58:08.329Z,100750.78
2022-09-03T04:00:38.506Z,100749.94
2022-09-03T04:03:06.818Z,100754.97
2022-09-03T04:05:35.109Z,100753.28
2022-09-03T04:08:04.172Z,100756.63
2022-09-03T04:10:34.529Z,100749.53
2022-09-03T04:13:02.915Z,100755.59
2022-09-03T04:15:31.234Z,100756.63
2022-09-03T04:17:59.556Z,100751.56
2022-09-03T04:20:27.892Z,100751.97
2022-09-03T04:22:56.220Z,100748.63
2022-09-03T04:25:24.481Z,100769.72
2022-09-03T04:27:54.415Z,100772.03
2022-09-03T04:30:22.808Z,100762.22
2022-09-03T04:32:57.238Z,100721.63
2022-09-03T04:35:33.747Z,100717.44
2022-09-03T04:38:04.396Z,100744.84
2022-09-03T04:40:32.652Z,100731.25
2022-09-03T04:43:02.372Z,100734.16
2022-09-03T04:45:31.066Z,100745.78
2022-09-03T04:48:00.908Z,100755.59
2022-09-03T04:50:30.461Z,100756.63
2022-09-03T04:53:07.583Z,100748.69
2022-09-03T04:55:37.252Z,100759.34
2022-09-03T04:58:08.648Z,100761.63
2022-09-03T05:00:37.840Z,100753.69
2022-09-03T05:03:06.188Z,100746.94
2022-09-03T05:05:34.714Z,100748.16
2022-09-03T05:08:03.459Z,100764.84
2022-09-03T05:10:32.202Z,100787.94
2022-09-03T05:13:01.929Z,100808.19
2022-09-03T05:15:33.099Z,100810.13
2022-09-03T05:18:02.375Z,100805.78
2022-09-03T05:20:32.791Z,100808.72
2022-09-03T05:23:03.509Z,100813.13
2022-09-03T05:25:33.325Z,100815.19
2022-09-03T05:28:02.087Z,100815.44
2022-09-03T05:30:31.841Z,100807.50
2022-09-03T05:33:00.125Z,100805.81
2022-09-03T05:35:30.206Z,100808.97
2022-09-03T05:38:00.929Z,100803.09
2022-09-03T05:40:29.550Z,100795.78
2022-09-03T05:42:59.913Z,100817.44
2022-09-03T05:45:29.646Z,100798.91
2022-09-03T05:48:01.431Z,100802.06
2022-09-03T05:50:30.014Z,100811.44
2022-09-03T05:53:00.386Z,100812.53
2022-09-03T05:55:29.381Z,100808.78
2022-09-03T05:57:57.667Z,100798.38
2022-09-03T06:00:26.032Z,100805.47
2022-09-03T06:02:55.018Z,100799.22
2022-09-03T06:05:25.230Z,100793.16
2022-09-03T06:07:53.577Z,100798.97
2022-09-03T06:10:26.155Z,100799.41
2022-09-03T06:13:03.919Z,100813.44
2022-09-03T06:15:32.905Z,100822.44
2022-09-03T06:18:01.202Z,100833.72
2022-09-03T06:20:35.114Z,100829.59
2022-09-03T06:23:05.409Z,100831.25
2022-09-03T06:25:33.721Z,100832.72
2022-09-03T06:28:02.356Z,100817.09
2022-09-03T06:30:30.652Z,100817.53
2022-09-03T06:32:59.483Z,100822.56
2022-09-03T06:35:27.749Z,100813.41
2022-09-03T06:38:00.587Z,100816.56
2022-09-03T06:40:28.928Z,100809.66
2022-09-03T06:42:59.385Z,100830.34
2022-09-03T06:45:28.104Z,100823.28
2022-09-03T06:47:56.379Z,100817.03
2022-09-03T06:50:24.900Z,100818.53
2022-09-03T06:52:55.197Z,100812.47
2022-09-03T06:55:25.049Z,100809.53
2022-09-03T06:57:57.205Z,100800.34
2022-09-03T07:00:25.541Z,100811.63
2022-09-03T07:03:00.025Z,100820.34
2022-09-03T07:05:29.144Z,100821.09
2022-09-03T07:07:57.314Z,100824.22
2022-09-03T07:10:28.196Z,100815.63
2022-09-03T07:12:57.161Z,100813.53
2022-09-03T07:15:26.425Z,100816.50
2022-09-03T07:17:55.273Z,100823.66
2022-09-03T07:20:23.709Z,100834.97
2022-09-03T07:22:55.017Z,100825.97
2022-09-03T07:25:27.426Z,100827.88
2022-09-03T07:27:56.179Z,100835.22
2022-09-03T07:30:26.500Z,100827.06
2022-09-03T07:32:55.147Z,100831.44
2022-09-03T07:35:25.978Z,100833.53
2022-09-03T07:37:56.352Z,100837.53
2022-09-03T07:40:26.997Z,100836.53
2022-09-03T07:43:02.098Z,100841.56
2022-09-03T07:45:30.488Z,100837.81
2022-09-03T07:47:58.871Z,100837.63
2022-09-03T07:50:27.373Z,100845.56
2022-09-03T07:52:58.592Z,100842.13
2022-09-03T07:55:28.312Z,100842.28
2022-09-03T07:57:57.471Z,100841.34
2022-09-03T08:00:26.171Z,100834.59
2022-09-03T08:02:59.732Z,100845.09
2022-09-03T08:05:28.035Z,100848.06
2022-09-03T08:07:56.221Z,100835.75
2022-09-03T08:10:26.063Z,100846.94
2022-09-03T08:12:55.809Z,100860.66
2022-09-03T08:15:26.364Z,100859.91
2022-09-03T08:17:54.681Z,100862.41
2022-09-03T08:20:32.542Z,100869.13
2022-09-03T08:23:04.097Z,100864.13
2022-09-03T08:25:33.328Z,100855.63
2022-09-03T08:28:03.084Z,100858.03
2022-09-03T08:30:31.444Z,100859.41
2022-09-03T08:33:05.018Z,100871.47
2022-09-03T08:35:34.795Z,100859.84
2022-09-03T08:38:05.877Z,100861.44
2022-09-03T08:40:39.080Z,100860.63
2022-09-03T08:43:17.562Z,100858.31
2022-09-03T08:45:46.663Z,100860.09
2022-09-03T08:48:21.730Z,100863.53
2022-09-03T08:51:01.044Z,100853.72
2022-09-03T08:53:41.703Z,100847.72
2022-09-03T08:56:14.748Z,100850.78
2022-09-03T08:58:45.144Z,100850.06
2022-09-03T09:01:26.387Z,100856.38
2022-09-03T09:04:01.969Z,100853.88
2022-09-03T09:06:36.592Z,100854.97
2022-09-03T09:09:16.009Z,100855.19
2022-09-03T09:11:57.481Z,100858.75
2022-09-03T09:14:33.714Z,100852.44
2022-09-03T09:17:19.172Z,100854.38
2022-09-03T09:19:58.575Z,100861.38
2022-09-03T09:22:34.013Z,100850.56
2022-09-03T09:25:09.415Z,100853.38
2022-09-03T09:27:37.733Z,100793.69
2022-09-03T09:30:08.736Z,100852.81
2022-09-03T09:32:41.213Z,100847.53
2022-09-03T09:35:12.818Z,100839.78
2022-09-03T09:37:49.394Z,100837.06
2022-09-03T09:40:33.237Z,100838.97
2022-09-03T09:43:11.264Z,100833.72
2022-09-03T09:45:43.814Z,100835.25
2022-09-03T09:48:31.738Z,100831.22
2022-09-03T09:51:08.695Z,100832.63
2022-09-03T09:53:37.076Z,100827.25
2022-09-03T09:56:05.540Z,100821.31
2022-09-03T09:58:36.242Z,100821.72
2022-09-03T10:01:13.881Z,100816.00
2022-09-03T10:03:50.967Z,100813.59
2022-09-03T10:06:37.073Z,100815.84
2022-09-03T10:09:10.993Z,100820.91
2022-09-03T10:11:41.866Z,100817.78
2022-09-03T10:14:16.513Z,100816.88
2022-09-03T10:16:51.945Z,100816.66
2022-09-03T10:19:24.958Z,100811.31
2022-09-03T10:22:00.290Z,100809.25
2022-09-03T10:24:49.104Z,100811.13
2022-09-03T10:27:19.616Z,100804.69
2022-09-03T10:29:49.053Z,100800.78
2022-09-03T10:32:39.381Z,100794.94
2022-09-03T10:35:21.145Z,100803.16
2022-09-03T10:37:56.608Z,100798.50
2022-09-03T10:40:34.833Z,100798.22
2022-09-03T10:43:39.521Z,100792.00
2022-09-03T10:46:13.083Z,100780.16
2022-09-03T10:48:52.720Z,100784.50
2022-09-03T10:51:25.285Z,100765.63
2022-09-03T10:54:18.945Z,100767.13
2022-09-03T10:56:55.278Z,100760.38
2022-09-03T10:59:49.148Z,100768.16
2022-09-03T11:02:34.649Z,100756.59
2022-09-03T11:05:08.162Z,100756.22
2022-09-03T11:07:40.413Z,100749.34
2022-09-03T11:10:18.198Z,100754.84
2022-09-03T11:12:51.244Z,100751.47
2022-09-03T11:15:28.400Z,100744.59
2022-09-03T11:18:01.613Z,100755.69
2022-09-03T11:20:32.549Z,100752.94
2022-09-03T11:23:08.703Z,100743.84
2022-09-03T11:25:54.742Z,100746.91
2022-09-03T11:28:39.069Z,100738.34
2022-09-03T11:31:19.940Z,100734.50
2022-09-03T11:34:01.700Z,100740.00
2022-09-03T11:36:34.421Z,100746.66
2022-09-03T11:39:16.866Z,100745.50
2022-09-03T11:41:46.834Z,100746.66
2022-09-03T11:44:21.640Z,100754.38
2022-09-03T11:46:58.344Z,100754.69
2022-09-03T11:49:31.344Z,100759.03
2022-09-03T11:52:02.934Z,100757.38
2022-09-03T11:54:34.418Z,100757.13
2022-09-03T11:57:13.333Z,100749.09
2022-09-03T11:59:44.331Z,100760.72
2022-09-03T12:02:29.073Z,100759.31
2022-09-03T12:05:17.192Z,100762.28
2022-09-03T12:08:09.032Z,100761.19
2022-09-03T12:10:50.593Z,100753.25
2022-09-03T12:13:46.387Z,100757.88
2022-09-03T12:16:30.195Z,100753.38
2022-09-03T12:19:06.224Z,100744.16
2022-09-03T12:21:50.554Z,100729.88
2022-09-03T12:24:23.458Z,100754.28
2022-09-03T12:26:51.794Z,100756.00
2022-09-03T12:29:27.832Z,100751.97
2022-09-03T12:31:57.567Z,100756.84
2022-09-03T12:34:27.551Z,100759.50
2022-09-03T12:36:56.067Z,100757.28
2022-09-03T12:42:22.352Z,100755.47
2022-09-03T12:44:50.783Z,100758.81
2022-09-03T12:47:38.041Z,100726.22
2022-09-03T12:50:09.547Z,100746.72
2022-09-03T12:52:41.312Z,100756.69
2022-09-03T12:55:27.690Z,100749.28
2022-09-03T12:58:10.236Z,100759.75
2022-09-03T13:00:46.599Z,100756.72
2022-09-03T13:03:19.773Z,100752.88
2022-09-03T13:05:53.369Z,100752.09
2022-09-03T13:08:25.187Z,100753.47
2022-09-03T13:10:58.141Z,100755.66
2022-09-03T13:13:28.793Z,100750.06
2022-09-03T13:16:27.126Z,100746.66
2022-09-03T13:19:05.409Z,100741.94
2022-09-03T13:21:43.696Z,100740.88
2022-09-03T13:24:39.078Z,100740.72
2022-09-03T13:27:20.214Z,100739.06
2022-09-03T13:30:07.051Z,100734.63
2022-09-03T13:32:45.757Z,100744.00
2022-09-03T13:35:25.003Z,100738.22
2022-09-03T13:37:59.164Z,100746.59
2022-09-03T13:40:34.266Z,100743.00
2022-09-03T13:43:22.645Z,100738.25
2022-09-03T13:45:57.674Z,100740.66
2022-09-03T13:48:49.612Z,100734.56
2022-09-03T13:51:25.430Z,100692.66
2022-09-03T13:54:05.024Z,100729.09
2022-09-03T13:56:48.863Z,100721.88
2022-09-03T13:59:25.188Z,100719.09
2022-09-03T14:02:08.781Z,100718.00
2022-09-03T14:04:50.397Z,100702.25
2022-09-03T14:07:26.892Z,100704.81
2022-09-03T14:10:03.389Z,100707.78
2022-09-03T14:12:44.342Z,100704.78
2022-09-03T14:15:21.813Z,100704.78
2022-09-03T14:17:57.340Z,100700.94
2022-09-03T14:20:29.595Z,100699.28
2022-09-03T14:23:05.113Z,100701.25
2022-09-03T14:25:33.945Z,100712.06
2022-09-03T14:28:16.237Z,100686.91
2022-09-03T14:30:56.014Z,100713.97
2022-09-03T14:33:34.694Z,100717.03
2022-09-03T14:36:17.357Z,100720.31
2022-09-03T14:38:59.074Z,100713.75
2022-09-03T14:42:06.059Z,100706.56
2022-09-03T14:44:53.288Z,100716.50
2022-09-03T14:47:38.248Z,100712.63
2022-09-03T14:50:16.471Z,100709.50
2022-09-03T14:53:22.805Z,100703.19
2022-09-03T14:56:02.728Z,100712.50
2022-09-03T14:58:44.696Z,100706.44
2022-09-03T15:01:16.197Z,100706.44
2022-09-03T15:04:15.671Z,100707.00
2022-09-03T15:06:58.860Z,100699.31
2022-09-03T15:09:35.039Z,100712.28
2022-09-03T15:12:10.144Z,100705.47
2022-09-03T15:14:43.569Z,100704.63
2022-09-03T15:17:33.831Z,100695.81
2022-09-03T15:20:18.130Z,100699.97
2022-09-03T15:23:13.451Z,100702.72
2022-09-03T15:26:11.956Z,100689.13
2022-09-03T15:28:52.908Z,100688.53
2022-09-03T15:31:28.606Z,100693.47
2022-09-03T15:34:03.085Z,100684.41
2022-09-03T15:36:39.411Z,100681.69
2022-09-03T15:39:13.595Z,100682.00
2022-09-03T15:41:47.628Z,100664.06
2022-09-03T15:44:19.625Z,100684.81
2022-09-03T15:46:58.058Z,100690.84
2022-09-03T15:49:38.458Z,100680.69
2022-09-03T15:52:17.713Z,100672.06
2022-09-03T15:54:57.147Z,100681.13
2022-09-03T15:57:30.625Z,100678.59
2022-09-03T16:00:04.453Z,100676.56
2022-09-03T16:02:47.699Z,100677.06
2022-09-03T16:05:20.953Z,100688.53
2022-09-03T16:08:12.189Z,100676.63
2022-09-03T16:10:54.800Z,100676.88
2022-09-03T16:13:37.585Z,100674.66
2022-09-03T16:16:09.617Z,100671.84
2022-09-03T16:18:43.196Z,100641.69
2022-09-03T16:21:25.871Z,100672.53
2022-09-03T16:24:00.903Z,100676.53
2022-09-03T16:26:35.370Z,100672.59
2022-09-03T16:29:10.136Z,100668.44
2022-09-03T16:31:58.321Z,100664.00
2022-09-03T16:34:35.017Z,100661.44
2022-09-03T16:37:14.138Z,100659.78
2022-09-03T16:39:54.309Z,100658.38
2022-09-03T16:42:30.906Z,100653.66
2022-09-03T16:45:16.001Z,100657.41
2022-09-03T16:47:58.288Z,100655.75
2022-09-03T16:50:40.928Z,100653.78
2022-09-03T16:53:15.315Z,100670.19
2022-09-03T16:56:09.713Z,100659.72
2022-09-03T16:58:51.052Z,100660.38
2022-09-03T17:01:28.214Z,100663.22
2022-09-03T17:04:28.904Z,100666.72
2022-09-03T17:07:16.310Z,100622.91
2022-09-03T17:10:00.736Z,100685.66
2022-09-03T17:12:38.966Z,100689.47
2022-09-03T17:15:39.167Z,100687.16
2022-09-03T17:18:27.951Z,100694.22
2022-09-03T17:21:24.741Z,100702.97
2022-09-03T17:24:19.446Z,100707.78
2022-09-03T17:26:56.036Z,100705.31
2022-09-03T17:29:40.534Z,100709.66
2022-09-03T17:32:23.600Z,100708.97
2022-09-03T17:35:06.260Z,100706.06
2022-09-03T17:37:51.193Z,100712.78
2022-09-03T17:40:39.336Z,100720.13
2022-09-03T17:43:19.798Z,100731.00
2022-09-03T17:45:56.397Z,100729.50
2022-09-03T17:48:46.073Z,100735.63
2022-09-03T17:51:25.400Z,100732.84
2022-09-03T17:53:58.493Z,100740.81
2022-09-03T17:56:30.556Z,100745.88
2022-09-03T17:59:09.301Z,100748.78
2022-09-03T18:01:49.237Z,100760.13
2022-09-03T18:04:33.009Z,100759.44
2022-09-03T18:07:11.818Z,100756.84
2022-09-03T18:09:47.452Z,100735.84
2022-09-03T18:12:23.539Z,100767.25
2022-09-03T18:14:57.201Z,100749.22
2022-09-03T18:17:33.086Z,100766.31
2022-09-03T18:20:23.630Z,100770.50
2022-09-03T18:23:13.164Z,100776.81
2022-09-03T18:26:02.704Z,100787.06
2022-09-03T18:28:57.358Z,100785.88
2022-09-03T18:31:44.140Z,100782.06
2022-09-03T18:34:31.116Z,100792.66
2022-09-03T18:37:17.770Z,100792.88
2022-09-03T18:40:05.298Z,100805.13
2022-09-03T18:43:10.258Z,100807.75
2022-09-03T18:46:46.209Z,100814.63
2022-09-03T18:49:18.132Z,100822.09
2022-09-03T18:52:17.596Z,100835.38
2022-09-03T18:55:20.352Z,100840.97
2022-09-03T18:58:23.376Z,100849.41
2022-09-03T19:01:18.376Z,100850.72
2022-09-03T19:04:16.430Z,100859.59
2022-09-03T19:07:10.716Z,100860.44
2022-09-03T19:10:07.888Z,100865.53
2022-09-03T19:13:12.995Z,100869.41
2022-09-03T19:16:06.225Z,100877.59
2022-09-03T19:19:16.928Z,100878.50
2022-09-03T19:22:08.173Z,100882.53
2022-09-03T19:24:55.289Z,100886.09
2022-09-03T19:27:55.548Z,100888.22
2022-09-03T19:30:51.560Z,100891.22
2022-09-03T19:33:47.739Z,100899.66
2022-09-03T19:36:45.798Z,100905.28
2022-09-03T19:39:47.575Z,100902.19
2022-09-03T19:42:44.553Z,100870.97
2022-09-03T19:45:41.186Z,100913.78
2022-09-03T19:48:32.027Z,100918.03
2022-09-03T19:51:26.415Z,100916.97
2022-09-03T19:54:15.653Z,100916.56
2022-09-03T19:57:02.873Z,100911.06
2022-09-03T19:59:55.096Z,100917.47
2022-09-03T20:02:41.855Z,100918.69
2022-09-03T20:05:35.164Z,100927.72
2022-09-03T20:08:21.173Z,100927.72
2022-09-03T20:10:53.419Z,100931.56
2022-09-03T20:13:22.227Z,100928.31
2022-09-03T20:16:05.512Z,100926.28
2022-09-03T20:18:43.702Z,100924.84
2022-09-03T20:21:19.608Z,100918.38
2022-09-03T20:23:56.549Z,100914.69
2022-09-03T20:26:36.786Z,100921.00
2022-09-03T20:29:23.023Z,100912.88
2022-09-03T20:32:04.476Z,100796.25
2022-09-03T20:34:44.605Z,100896.25
2022-09-03T20:37:27.613Z,100905.66
2022-09-03T20:40:11.303Z,100910.69
2022-09-03T20:42:57.012Z,100906.72
2022-09-03T20:45:33.971Z,100910.09
2022-09-03T20:48:11.051Z,100910.75
2022-09-03T20:50:51.159Z,100905.31
2022-09-03T20:53:42.294Z,100895.91
2022-09-03T20:56:19.954Z,100897.63
2022-09-03T20:58:55.688Z,100891.59
2022-09-03T21:01:32.070Z,100900.41
2022-09-03T21:04:17.188Z,100896.66
2022-09-03T21:06:54.100Z,100896.88
2022-09-03T21:09:31.343Z,100891.06
2022-09-03T21:12:08.552Z,100898.22
2022-09-03T21:14:42.593Z,100866.63
2022-09-03T21:17:30.426Z,100893.84
2022-09-03T21:20:18.668Z,100889.03
2022-09-03T21:22:59.281Z,100897.63
2022-09-03T21:25:32.865Z,100893.47
2022-09-03T21:28:04.716Z,100911.66
2022-09-03T21:30:38.228Z,100906.63
2022-09-03T21:33:12.892Z,100912.88
2022-09-03T21:35:48.512Z,100913.97
2022-09-03T21:38:20.662Z,100919.84
2022-09-03T21:40:53.862Z,100893.34
2022-09-03T21:43:30.361Z,100911.50
2022-09-03T21:46:04.930Z,100911.50
2022-09-03T21:48:39.170Z,100923.63
2022-09-03T21:51:15.892Z,100931.63
2022-09-03T21:53:49.291Z,100903.22
2022-09-03T21:56:39.490Z,100938.09
2022-09-03T21:59:19.836Z,100935.81
2022-09-03T22:01:59.282Z,100945.84
2022-09-03T22:04:28.348Z,100944.41
2022-09-03T22:07:10.774Z,100961.34
2022-09-03T22:09:45.484Z,100952.34
2022-09-03T22:12:19.545Z,100958.56
2022-09-03T22:14:53.010Z,100967.16
2022-09-03T22:17:31.724Z,100973.41
2022-09-03T22:20:00.162Z,100975.28
2022-09-03T22:22:40.845Z,100967.56
2022-09-03T22:25:14.198Z,100975.72
2022-09-03T22:27:48.868Z,100980.75
2022-09-03T22:30:21.365Z,100993.06
2022-09-03T22:33:00.896Z,100994.72
2022-09-03T22:35:43.093Z,100994.50
2022-09-03T22:38:54.807Z,100991.34
2022-09-03T22:41:48.372Z,101000.31
2022-09-03T22:44:28.561Z,100989.69
2022-09-03T22:47:05.256Z,100983.19
2022-09-03T22:49:43.823Z,100994.28
2022-09-03T22:52:26.413Z,100991.34
2022-09-03T22:55:13.681Z,100993.00
2022-09-03T22:57:49.788Z,101001.81
2022-09-03T23:00:18.934Z,100993.63
2022-09-03T23:02:51.597Z,101002.44
2022-09-03T23:05:34.087Z,101009.09
2022-09-03T23:08:09.653Z,101003.47
2022-09-03T23:10:55.189Z,101001.78
2022-09-03T23:13:30.244Z,100983.94
2022-09-03T23:16:07.366Z,101008.41
2022-09-03T23:18:38.147Z,101006.94
2022-09-03T23:21:12.035Z,101007.34
2022-09-03T23:23:43.822Z,101016.34
2022-09-03T23:26:24.337Z,100988.44
2022-09-03T23:28:58.798Z,100960.22
2022-09-03T23:31:28.549Z,101014.50
2022-09-03T23:33:57.409Z,101005.72
2022-09-03T23:37:15.968Z,101017.44
2022-09-03T23:39:44.201Z,101024.47
2022-09-03T23:42:23.141Z,101033.03
2022-09-03T23:45:07.105Z,101030.06
2022-09-03T23:47:45.743Z,101028.56
2022-09-03T23:50:28.864Z,101034.47
2022-09-03T23:53:14.140Z,101023.81
2022-09-03T23:55:55.728Z,101025.41
2022-09-03T23:58:39.626Z,101027.47
